Time;durP1;ratioP1;P1;durP2;ratioP2;P2;SDS_P1;SDS_P2;PMS_P1;PMS_P2;Temp;Humidity;BMP_temperature;BMP_pressure;BME280_temperature;BME280_humidity;BME280_pressure;Samples;Min_cycle;Max_cycle;Signal;HPM_P1;HPM_P2
2022/11/06 00:01:14;;;;;;;2.53;1.08;;;10.10;99.90;;;;;;6233129;23;20016;-78
2022/11/06 00:03:42;;;;;;;2.50;1.02;;;10.00;99.90;;;;;;6208309;23;20043;-78
2022/11/06 00:09:07;;;;;;;1.65;0.70;;;10.10;99.90;;;;;;6231967;23;20048;-78
2022/11/06 00:11:36;;;;;;;2.72;1.50;;;10.10;99.90;;;;;;6203032;23;20021;-78
2022/11/06 00:14:05;;;;;;;3.92;0.98;;;10.00;99.90;;;;;;6179682;23;20047;-78
2022/11/06 00:16:33;;;;;;;2.47;0.90;;;10.10;99.90;;;;;;6204670;23;20563;-78
2022/11/06 00:19:02;;;;;;;2.45;1.05;;;10.00;99.90;;;;;;6199266;23;20016;-78
2022/11/06 00:21:30;;;;;;;2.15;0.98;;;10.00;99.90;;;;;;6176553;23;20079;-78
2022/11/06 00:24:03;;;;;;;1.52;0.82;;;10.00;99.90;;;;;;6199639;23;20051;-78
2022/11/06 00:26:33;;;;;;;3.03;0.93;;;10.00;99.90;;;;;;6203093;23;20031;-78
2022/11/06 00:29:01;;;;;;;2.78;0.80;;;10.00;99.90;;;;;;6201002;23;20043;-78
2022/11/06 00:31:34;;;;;;;3.40;0.85;;;10.00;99.90;;;;;;6199537;23;20012;-78
2022/11/06 00:34:05;;;;;;;2.83;1.00;;;10.00;99.90;;;;;;6176084;23;20016;-78
2022/11/06 00:36:32;;;;;;;2.80;0.68;;;10.00;99.90;;;;;;6201723;23;20013;-78
2022/11/06 00:39:00;;;;;;;1.88;0.80;;;10.00;99.90;;;;;;6174646;23;20020;-78
2022/11/06 00:41:33;;;;;;;2.13;1.00;;;10.10;99.90;;;;;;6201842;23;20024;-78
2022/11/06 00:44:03;;;;;;;2.10;0.85;;;10.00;99.90;;;;;;6202730;23;20029;-78
2022/11/06 00:46:30;;;;;;;2.63;0.90;;;10.00;99.90;;;;;;6174660;23;20017;-78
2022/11/06 00:48:57;;;;;;;2.25;0.70;;;10.00;99.90;;;;;;6200438;23;20086;-78
2022/11/06 00:51:29;;;;;;;2.20;0.80;;;10.00;99.90;;;;;;6201118;23;20023;-78
2022/11/06 00:54:03;;;;;;;2.10;0.90;;;10.00;99.90;;;;;;6175249;23;20440;-78
2022/11/06 00:56:30;;;;;;;2.28;0.80;;;10.00;99.90;;;;;;6202493;23;20063;-78
2022/11/06 00:59:00;;;;;;;1.55;0.75;;;10.00;99.90;;;;;;6198885;23;20020;-78
2022/11/06 01:01:30;;;;;;;2.50;1.27;;;10.00;99.90;;;;;;6174952;23;20021;-78
2022/11/06 01:04:13;;;;;;;2.50;0.70;;;10.00;99.90;;;;;;6200528;23;20032;-78
2022/11/06 01:06:41;;;;;;;;;;;10.00;99.90;;;;;;6231238;23;20028;-78
2022/11/06 01:09:12;;;;;;;4.05;1.15;;;10.00;99.90;;;;;;6200826;23;19923;-78
2022/11/06 01:11:43;;;;;;;2.20;1.00;;;10.00;99.90;;;;;;6196450;23;20020;-78
2022/11/06 01:14:31;;;;;;;3.42;1.27;;;10.00;99.90;;;;;;6200821;23;20020;-78
2022/11/06 01:16:58;;;;;;;2.08;0.90;;;10.00;99.90;;;;;;6173128;23;20027;-78
2022/11/06 01:19:25;;;;;;;2.10;1.33;;;10.00;99.90;;;;;;6193122;23;20028;-78
2022/11/06 01:21:54;;;;;;;3.10;0.70;;;10.00;99.90;;;;;;6192883;23;20020;-78
2022/11/06 01:24:26;;;;;;;2.10;0.70;;;9.90;99.90;;;;;;6196612;23;20092;-78
2022/11/06 01:26:54;;;;;;;2.72;1.00;;;10.00;99.90;;;;;;6221050;23;20437;-78
2022/11/06 01:29:41;;;;;;;1.83;1.00;;;10.00;99.90;;;;;;6195549;23;20016;-78
2022/11/06 01:32:15;;;;;;;2.60;0.82;;;9.90;99.90;;;;;;6194385;23;20013;-78
2022/11/06 01:34:43;;;;;;;2.28;1.00;;;10.00;99.90;;;;;;6195082;23;20044;-78
2022/11/06 01:37:10;;;;;;;2.55;0.95;;;10.00;99.90;;;;;;6192195;23;20012;-78
2022/11/06 01:39:40;;;;;;;2.38;0.90;;;10.00;99.90;;;;;;6191509;23;20467;-78
2022/11/06 01:42:11;;;;;;;2.17;1.13;;;9.90;99.90;;;;;;6190938;23;20059;-78
2022/11/06 01:44:41;;;;;;;2.95;1.13;;;10.00;99.90;;;;;;6189902;23;20055;-78
2022/11/06 01:47:27;;;;;;;2.33;1.00;;;9.90;99.90;;;;;;6190881;23;20025;-78
2022/11/06 01:49:57;;;;;;;1.92;1.27;;;10.00;99.90;;;;;;6196461;23;20023;-78
2022/11/06 01:52:25;;;;;;;2.58;1.33;;;9.90;99.90;;;;;;6189431;23;20016;-78
2022/11/06 01:54:58;;;;;;;3.72;2.05;;;10.00;99.90;;;;;;6218377;23;20020;-78
2022/11/06 01:57:25;;;;;;;4.18;1.58;;;10.00;99.90;;;;;;6188242;23;20104;-78
2022/11/06 01:59:54;;;;;;;3.33;1.17;;;9.90;99.90;;;;;;6134432;23;20030;-78
2022/11/06 02:02:21;;;;;;;4.05;1.45;;;9.90;99.90;;;;;;6182938;23;20029;-78
2022/11/06 02:04:50;;;;;;;2.60;1.67;;;9.90;99.90;;;;;;6185589;23;20029;-78
2022/11/06 02:07:18;;;;;;;3.03;1.40;;;9.90;99.90;;;;;;6158081;23;20048;-78
2022/11/06 02:09:45;;;;;;;2.47;1.65;;;10.00;99.90;;;;;;6131285;23;20017;-78
2022/11/06 02:12:37;;;;;;;2.65;1.63;;;10.00;99.90;;;;;;6163765;23;20028;-78
2022/11/06 02:15:14;;;;;;;4.47;1.50;;;9.90;99.90;;;;;;6214759;23;20027;-78
2022/11/06 02:17:57;;;;;;;3.55;1.80;;;9.90;99.90;;;;;;6163051;23;20021;-78
2022/11/06 02:20:33;;;;;;;2.53;1.60;;;9.90;99.90;;;;;;6188628;23;20024;-78
2022/11/06 02:23:40;;;;;;;2.40;1.27;;;9.90;99.90;;;;;;6210999;23;20103;-78
2022/11/06 02:26:46;;;;;;;3.88;1.75;;;9.90;99.90;;;;;;6185931;23;20031;-78
2022/11/06 02:29:21;;;;;;;4.40;2.08;;;9.90;99.90;;;;;;6157725;23;20035;-78
2022/11/06 02:31:54;;;;;;;3.45;1.63;;;9.90;99.90;;;;;;6181594;23;20500;-78
2022/11/06 02:34:25;;;;;;;3.53;1.42;;;9.90;99.90;;;;;;6184825;23;20025;-78
2022/11/06 02:37:00;;;;;;;4.15;1.77;;;9.90;99.90;;;;;;6180960;23;20404;-78
2022/11/06 02:39:31;;;;;;;3.50;1.52;;;9.90;99.90;;;;;;6155400;23;20507;-78
2022/11/06 02:42:00;;;;;;;3.75;1.65;;;9.90;99.90;;;;;;6182689;23;20021;-78
2022/11/06 02:44:29;;;;;;;5.18;1.88;;;9.90;99.90;;;;;;6180745;23;20017;-77
2022/11/06 02:47:01;;;;;;;3.80;1.98;;;9.90;99.90;;;;;;6179497;23;20072;-78
2022/11/06 02:50:03;;;;;;;2.80;1.23;;;9.90;99.90;;;;;;6179693;23;20025;-78
2022/11/06 02:52:39;;;;;;;4.18;1.88;;;9.90;99.90;;;;;;6155708;23;20477;-78
2022/11/06 02:55:28;;;;;;;4.10;2.10;;;10.00;99.90;;;;;;6156308;23;20583;-78
2022/11/06 02:57:59;;;;;;;4.53;2.15;;;9.90;99.90;;;;;;6180722;23;20017;-78
2022/11/06 03:00:27;;;;;;;3.70;2.03;;;9.90;99.90;;;;;;6179683;23;20031;-78
2022/11/06 03:03:03;;;;;;;4.43;2.28;;;9.90;99.90;;;;;;6155751;23;20715;-78
2022/11/06 03:05:35;;;;;;;3.70;1.83;;;9.90;99.90;;;;;;6186990;23;20463;-78
2022/11/06 03:08:12;;;;;;;5.18;2.38;;;9.90;99.90;;;;;;6213964;23;20024;-78
2022/11/06 03:10:48;;;;;;;4.65;2.30;;;9.90;99.90;;;;;;6187606;23;20026;-78
2022/11/06 03:13:38;;;;;;;3.30;1.88;;;9.90;99.90;;;;;;6213622;23;20047;-78
2022/11/06 03:16:22;;;;;;;3.90;1.85;;;9.80;99.90;;;;;;6189391;23;20039;-78
2022/11/06 03:19:04;;;;;;;4.00;2.28;;;9.90;99.90;;;;;;6165659;23;20115;-78
2022/11/06 03:21:37;;;;;;;5.57;2.70;;;9.90;99.90;;;;;;6188462;23;20024;-78
2022/11/06 03:24:10;;;;;;;;;;;9.90;99.90;;;;;;6189836;23;20020;-78
2022/11/06 03:26:43;;;;;;;4.83;2.27;;;9.90;99.90;;;;;;6191221;23;19920;-78
2022/11/06 03:29:13;;;;;;;3.05;1.63;;;9.90;99.90;;;;;;6190330;23;20024;-78
2022/11/06 03:31:57;;;;;;;3.92;1.70;;;9.90;99.90;;;;;;6213979;23;20023;-78
2022/11/06 03:34:31;;;;;;;4.93;2.70;;;9.90;99.90;;;;;;6188550;23;20036;-78
2022/11/06 03:37:09;;;;;;;4.13;2.03;;;9.90;99.90;;;;;;6190980;23;20352;-78
2022/11/06 03:39:42;;;;;;;4.20;1.83;;;9.90;99.90;;;;;;6189907;23;20396;-78
2022/11/06 03:42:17;;;;;;;4.25;1.90;;;9.90;99.90;;;;;;6188102;23;20017;-78
2022/11/06 03:44:51;;;;;;;4.95;1.98;;;9.90;99.90;;;;;;6187682;23;20016;-78
2022/11/06 03:47:24;;;;;;;4.95;2.08;;;9.80;99.90;;;;;;6188680;23;20082;-78
2022/11/06 03:50:08;;;;;;;5.00;2.20;;;9.90;99.90;;;;;;6191064;23;20016;-78
2022/11/06 03:52:43;;;;;;;6.50;2.85;;;9.80;99.90;;;;;;6192091;23;20051;-78
2022/11/06 03:55:15;;;;;;;4.90;2.38;;;9.80;99.90;;;;;;6189320;23;20028;-78
2022/11/06 03:57:46;;;;;;;6.53;2.53;;;9.80;99.90;;;;;;6191897;23;20013;-78
2022/11/06 04:00:13;;;;;;;5.20;2.67;;;9.80;99.90;;;;;;6189544;23;20024;-78
2022/11/06 04:02:46;;;;;;;6.45;2.58;;;9.80;99.90;;;;;;6190373;23;20024;-78
2022/11/06 04:05:22;;;;;;;6.32;3.13;;;9.80;99.90;;;;;;6190144;23;20480;-78
2022/11/06 04:16:20;;;;;;;5.20;2.85;;;9.80;99.90;;;;;;6216626;23;20044;-78
2022/11/06 04:18:46;;;;;;;4.75;2.50;;;9.80;99.90;;;;;;6216752;23;20017;-78
2022/11/06 04:21:44;;;;;;;5.03;2.30;;;9.80;99.90;;;;;;6214781;23;20021;-78
2022/11/06 04:27:27;;;;;;;7.20;3.15;;;9.80;99.90;;;;;;6213804;23;20021;-78
2022/11/06 04:30:16;;;;;;;4.63;2.38;;;9.80;99.90;;;;;;6218920;23;20024;-78
2022/11/06 04:32:55;;;;;;;7.20;2.95;;;9.80;99.90;;;;;;6189263;23;20016;-78
2022/11/06 04:35:29;;;;;;;7.10;3.13;;;9.80;99.90;;;;;;6213110;23;20137;-78
2022/11/06 04:38:13;;;;;;;7.00;3.50;;;9.80;99.90;;;;;;6215635;23;20456;-78
2022/11/06 04:40:49;;;;;;;7.13;3.92;;;9.80;99.90;;;;;;6216696;23;20016;-78
2022/11/06 04:43:41;;;;;;;5.40;2.75;;;9.80;99.90;;;;;;6214700;23;20025;-78
2022/11/06 04:46:12;;;;;;;6.28;2.70;;;9.80;99.90;;;;;;6188579;23;20020;-78
2022/11/06 04:48:40;;;;;;;5.57;2.05;;;9.80;99.90;;;;;;6212698;23;20042;-78
2022/11/06 04:51:10;;;;;;;6.40;2.85;;;9.80;99.90;;;;;;6215819;23;20039;-78
2022/11/06 04:53:38;;;;;;;6.60;2.40;;;9.80;99.90;;;;;;6213776;23;20043;-78
2022/11/06 04:56:11;;;;;;;5.85;2.58;;;9.80;99.90;;;;;;6212416;23;20047;-78
2022/11/06 04:58:38;;;;;;;5.53;2.60;;;9.80;99.90;;;;;;6215597;23;20013;-78
2022/11/06 05:01:05;;;;;;;6.10;2.45;;;9.80;99.90;;;;;;6214595;23;20048;-78
2022/11/06 05:03:33;;;;;;;8.10;2.70;;;9.80;99.90;;;;;;6213289;23;20020;-78
2022/11/06 05:06:01;;;;;;;5.05;2.45;;;9.80;99.90;;;;;;6212216;23;20021;-78
2022/11/06 05:08:29;;;;;;;6.35;2.70;;;9.80;99.90;;;;;;6212892;23;20029;-78
2022/11/06 05:10:56;;;;;;;6.07;2.72;;;9.80;99.90;;;;;;6189025;23;20024;-78
2022/11/06 05:13:23;;;;;;;5.38;2.67;;;9.80;99.90;;;;;;6213088;23;20019;-78
2022/11/06 05:15:56;;;;;;;5.53;2.45;;;9.80;99.90;;;;;;6186498;23;20087;-78
2022/11/06 05:18:23;;;;;;;;;;;9.80;99.90;;;;;;6188034;23;20079;-78
2022/11/06 05:22:56;;;;;;;6.25;2.95;;;9.80;99.90;;;;;;6213989;23;19916;-78
2022/11/06 05:23:37;;;;;;;6.30;2.78;;;9.80;99.90;;;;;;6214007;23;20027;-78
2022/11/06 05:26:06;;;;;;;6.65;3.00;;;9.80;99.90;;;;;;6187736;23;20082;-78
2022/11/06 05:28:33;;;;;;;6.30;2.70;;;9.90;99.90;;;;;;6212497;23;20029;-78
2022/11/06 05:31:00;;;;;;;8.32;3.20;;;9.90;99.90;;;;;;6193328;23;20048;-78
2022/11/06 05:33:28;;;;;;;7.50;3.08;;;9.80;99.90;;;;;;6218130;23;20024;-78
2022/11/06 05:35:54;;;;;;;6.05;3.38;;;9.90;99.90;;;;;;6216444;23;20024;-78
2022/11/06 05:38:21;;;;;;;7.00;3.47;;;9.90;99.90;;;;;;6190549;23;20044;-78
2022/11/06 05:40:48;;;;;;;8.25;3.55;;;9.80;99.90;;;;;;6193391;23;20016;-78
2022/11/06 05:43:16;;;;;;;12.05;5.50;;;9.80;99.90;;;;;;6215732;23;20020;-78
2022/11/06 05:45:43;;;;;;;12.63;5.32;;;9.80;99.90;;;;;;6189992;23;20029;-78
2022/11/06 05:48:10;;;;;;;12.80;5.38;;;9.80;99.90;;;;;;6216929;23;20027;-78
2022/11/06 05:50:37;;;;;;;14.85;6.40;;;9.80;99.90;;;;;;6216384;23;20059;-78
2022/11/06 05:53:15;;;;;;;17.40;7.28;;;9.80;99.90;;;;;;6221635;23;20388;-78
2022/11/06 05:55:43;;;;;;;15.68;7.13;;;9.80;99.90;;;;;;6216154;23;20025;-78
2022/11/06 05:58:10;;;;;;;12.00;5.25;;;9.80;99.90;;;;;;6216999;23;20021;-78
2022/11/06 06:00:39;;;;;;;9.88;4.53;;;9.90;99.90;;;;;;6189931;23;20020;-78
2022/11/06 06:03:06;;;;;;;8.43;4.38;;;9.90;99.90;;;;;;6212415;23;20017;-78
2022/11/06 06:05:33;;;;;;;9.93;4.13;;;9.90;99.90;;;;;;6213256;23;20025;-78
2022/11/06 06:08:00;;;;;;;9.98;3.72;;;9.90;99.90;;;;;;6218915;23;20460;-78
2022/11/06 06:10:27;;;;;;;10.52;4.05;;;9.90;99.90;;;;;;6189652;23;20024;-78
2022/11/06 06:12:54;;;;;;;8.35;4.10;;;9.90;99.90;;;;;;6214576;23;20025;-78
2022/11/06 06:15:21;;;;;;;9.88;4.30;;;9.90;99.90;;;;;;6213618;23;20502;-78
2022/11/06 06:17:48;;;;;;;8.43;4.55;;;9.80;99.90;;;;;;6214502;23;20022;-78
2022/11/06 06:20:15;;;;;;;7.97;3.53;;;9.90;99.90;;;;;;6189567;23;20017;-78
2022/11/06 06:22:42;;;;;;;8.68;3.70;;;9.90;99.90;;;;;;6214727;23;20024;-78
2022/11/06 06:25:09;;;;;;;9.30;4.85;;;9.90;99.90;;;;;;6192350;23;20020;-78
2022/11/06 06:27:48;;;;;;;8.75;4.68;;;9.90;99.90;;;;;;6219223;23;20044;-78
2022/11/06 06:30:15;;;;;;;9.00;4.28;;;9.90;99.90;;;;;;6214061;23;20028;-78
2022/11/06 06:32:42;;;;;;;6.93;3.40;;;9.90;99.90;;;;;;6214207;23;20028;-78
2022/11/06 06:35:09;;;;;;;9.27;4.07;;;9.90;99.90;;;;;;6192628;23;20329;-78
2022/11/06 06:37:38;;;;;;;11.00;3.72;;;9.90;99.90;;;;;;6217456;23;20017;-78
2022/11/06 06:40:06;;;;;;;11.13;4.03;;;9.90;99.90;;;;;;6217275;23;20008;-78
2022/11/06 06:42:33;;;;;;;7.10;3.25;;;9.90;99.90;;;;;;6216711;23;20020;-78
2022/11/06 06:45:00;;;;;;;6.88;3.25;;;9.90;99.90;;;;;;6215443;23;20024;-78
2022/11/06 06:47:27;;;;;;;7.75;3.90;;;9.90;99.90;;;;;;6217762;23;20020;-78
2022/11/06 06:49:54;;;;;;;9.32;3.97;;;9.90;99.90;;;;;;6218720;23;20078;-78
2022/11/06 06:52:21;;;;;;;7.25;3.58;;;9.90;99.90;;;;;;6197992;23;20023;-78
2022/11/06 06:54:48;;;;;;;11.40;4.28;;;9.90;99.90;;;;;;6169034;23;20016;-78
2022/11/06 06:57:15;;;;;;;9.70;4.13;;;9.90;99.90;;;;;;6219375;23;20016;-78
2022/11/06 06:59:42;;;;;;;13.00;4.70;;;9.90;99.90;;;;;;6218836;23;20025;-78
2022/11/06 08:11:48;;;;;;;12.68;6.10;;;10.20;99.90;;;;;;6209511;22;20039;-78
2022/11/06 08:18:08;;;;;;;10.48;5.32;;;10.30;99.90;;;;;;6166860;23;20055;31
2022/11/06 08:24:10;;;;;;;14.65;6.80;;;10.30;99.90;;;;;;6213111;22;20030;-78
2022/11/06 08:30:28;;;;;;;15.27;6.38;;;10.30;99.90;;;;;;6205293;23;20032;-77
2022/11/06 08:33:30;;;;;;;12.73;5.90;;;10.40;99.90;;;;;;6173164;23;20044;31
2022/11/06 08:36:04;;;;;;;15.48;6.55;;;10.40;99.90;;;;;;6156558;23;20037;-77
2022/11/06 08:38:35;;;;;;;12.73;7.38;;;10.50;99.90;;;;;;6133498;23;20069;-77
2022/11/06 08:44:41;;;;;;;13.63;6.47;;;10.60;99.90;;;;;;6232845;23;20036;-78
2022/11/06 08:47:08;;;;;;;12.65;7.18;;;10.60;99.90;;;;;;6217532;22;20021;-78
2022/11/06 08:49:35;;;;;;;13.15;6.22;;;10.70;99.90;;;;;;6167239;23;20039;-78
2022/11/06 08:52:09;;;;;;;18.30;7.88;;;10.70;99.90;;;;;;6210154;23;20067;-78
2022/11/06 08:54:37;;;;;;;12.38;6.32;;;10.70;99.90;;;;;;6210648;23;20024;-78
2022/11/06 08:57:04;;;;;;;14.95;6.80;;;10.70;99.90;;;;;;6188701;23;20075;-78
2022/11/06 08:59:32;;;;;;;13.90;6.22;;;10.70;99.90;;;;;;6188788;23;20039;-78
2022/11/06 09:01:59;;;;;;;10.88;5.72;;;10.70;99.90;;;;;;6185336;23;20025;-78
2022/11/06 09:04:27;;;;;;;11.77;6.78;;;10.70;99.90;;;;;;6206754;23;20088;-78
2022/11/06 09:06:56;;;;;;;12.35;6.00;;;10.80;99.90;;;;;;6207331;23;20013;-78
2022/11/06 09:09:30;;;;;;;14.07;6.65;;;10.80;99.90;;;;;;6208018;23;20369;-78
2022/11/06 09:12:02;;;;;;;13.48;6.75;;;10.80;99.90;;;;;;6209992;23;20013;-78
2022/11/06 09:14:29;;;;;;;10.88;6.10;;;10.80;99.90;;;;;;6186603;23;20020;-78
2022/11/06 09:16:57;;;;;;;14.77;6.38;;;10.70;99.90;;;;;;6210332;23;20044;-78
2022/11/06 09:19:25;;;;;;;12.45;5.53;;;10.70;99.90;;;;;;6185697;23;20025;-78
2022/11/06 09:21:52;;;;;;;11.88;6.00;;;10.70;99.90;;;;;;6192087;23;20142;-78
2022/11/06 09:24:21;;;;;;;13.73;6.40;;;10.80;99.90;;;;;;6218822;22;20012;-78
2022/11/06 09:27:08;;;;;;;13.70;6.13;;;10.80;99.90;;;;;;6244175;23;20023;-79
2022/11/06 09:29:39;;;;;;;11.70;5.70;;;10.80;99.90;;;;;;6244454;23;20023;-78
2022/11/06 09:32:06;;;;;;;12.13;5.65;;;10.80;99.90;;;;;;6220799;23;20016;-78
2022/11/06 09:34:33;;;;;;;11.82;6.13;;;10.90;99.90;;;;;;6213765;23;20016;-78
2022/11/06 09:37:02;;;;;;;11.95;5.95;;;11.00;99.90;;;;;;6206905;23;20083;-78
2022/11/06 09:39:29;;;;;;;11.45;5.97;;;11.00;99.90;;;;;;6207268;23;20022;-78
2022/11/06 09:42:20;;;;;;;10.02;5.30;;;11.10;99.90;;;;;;6204302;23;20049;-78
2022/11/06 09:45:01;;;;;;;11.15;6.20;;;11.10;99.90;;;;;;6181334;23;20021;-78
2022/11/06 09:47:34;;;;;;;12.23;5.65;;;11.10;99.90;;;;;;6205745;23;20017;-78
2022/11/06 09:50:05;;;;;;;11.48;4.95;;;11.20;99.90;;;;;;6205566;23;20029;-78
2022/11/06 09:52:43;;;;;;;12.20;6.82;;;11.30;99.90;;;;;;6206717;23;20013;-78
2022/11/06 09:55:16;;;;;;;12.95;5.78;;;11.40;99.90;;;;;;6181903;23;20017;-78
2022/11/06 09:57:48;;;;;;;;;;;11.40;99.90;;;;;;6209330;23;20013;-78
2022/11/06 10:00:16;;;;;;;13.02;6.47;;;11.50;99.90;;;;;;6151519;23;19945;-78
2022/11/06 10:02:49;;;;;;;12.23;5.32;;;11.50;99.90;;;;;;6120302;23;20124;-78
2022/11/06 10:05:32;;;;;;;;;;;11.60;99.90;;;;;;6142192;23;20099;-78
2022/11/06 10:08:04;;;;;;;;;;;11.60;99.90;;;;;;6167357;23;20834;-78
2022/11/06 10:10:48;;;;;;;7.85;3.50;;;11.70;99.90;;;;;;6195359;23;20421;-78
2022/11/06 10:13:46;;;;;;;7.53;4.03;;;11.70;99.90;;;;;;6169334;23;20016;-78
2022/11/06 10:16:38;;;;;;;8.73;4.47;;;11.80;99.90;;;;;;6196442;23;20016;-78
2022/11/06 10:19:13;;;;;;;8.13;4.43;;;11.90;99.90;;;;;;6192084;23;20024;-78
2022/11/06 10:21:47;;;;;;;11.25;5.35;;;12.00;99.90;;;;;;6197281;23;20021;-78
2022/11/06 10:24:28;;;;;;;10.52;4.90;;;11.80;99.90;;;;;;6193034;23;20345;-78
2022/11/06 10:26:57;;;;;;;9.90;4.75;;;12.10;99.90;;;;;;6165346;23;20024;-78
2022/11/06 10:29:57;;;;;;;7.72;4.50;;;12.10;99.90;;;;;;6167208;23;20047;-78
2022/11/06 10:32:54;;;;;;;11.75;5.55;;;12.20;99.90;;;;;;6166515;23;20013;-78
2022/11/06 10:35:53;;;;;;;9.75;4.55;;;12.40;99.90;;;;;;6178338;23;20016;-78
2022/11/06 10:38:33;;;;;;;7.53;3.45;;;12.50;99.90;;;;;;6193308;23;20032;-78
2022/11/06 10:41:01;;;;;;;9.02;3.83;;;12.50;99.90;;;;;;6212619;23;20099;-78
2022/11/06 10:43:55;;;;;;;9.20;4.40;;;12.70;99.90;;;;;;6190456;23;20051;-78
2022/11/06 10:46:26;;;;;;;10.05;4.70;;;12.80;99.90;;;;;;6219333;23;20013;-78
2022/11/06 10:48:58;;;;;;;8.13;4.25;;;13.00;99.90;;;;;;6199015;23;20020;-78
2022/11/06 10:51:37;;;;;;;8.75;4.03;;;13.00;99.90;;;;;;6218571;23;20455;-78
2022/11/06 10:54:39;;;;;;;6.78;3.97;;;13.10;99.90;;;;;;6218523;23;20016;-78
2022/11/06 10:57:44;;;;;;;8.43;3.75;;;13.10;99.90;;;;;;6225192;22;20070;-78
2022/11/06 11:00:14;;;;;;;8.32;4.00;;;12.80;99.90;;;;;;6096844;23;20036;-78
2022/11/06 11:02:48;;;;;;;9.13;3.67;;;12.80;99.90;;;;;;6215285;23;20020;-78
2022/11/06 11:05:18;;;;;;;8.38;4.10;;;12.80;99.90;;;;;;6199299;23;20020;-78
2022/11/06 11:07:48;;;;;;;8.85;3.38;;;12.90;99.90;;;;;;6224888;23;20024;-78
2022/11/06 11:13:37;;;;;;;9.50;4.95;;;13.00;99.90;;;;;;6228706;23;20031;-78
2022/11/06 11:16:11;;;;;;;9.40;5.07;;;12.80;99.90;;;;;;6177742;23;20016;-78
2022/11/06 11:18:38;;;;;;;10.05;5.47;;;12.80;99.90;;;;;;6203871;23;20055;-78
2022/11/06 11:21:17;;;;;;;12.43;5.32;;;12.90;99.90;;;;;;6201401;23;20032;-78
2022/11/06 11:23:47;;;;;;;10.48;5.18;;;12.80;99.90;;;;;;6205923;23;20017;-78
2022/11/06 11:26:27;;;;;;;10.20;4.97;;;12.70;99.90;;;;;;6171286;23;20024;-78
2022/11/06 11:28:59;;;;;;;10.23;5.47;;;12.60;99.90;;;;;;6180923;23;20079;-78
2022/11/06 11:31:29;;;;;;;8.95;4.57;;;12.60;99.90;;;;;;6202221;23;20016;-78
2022/11/06 11:34:00;;;;;;;7.97;4.65;;;12.60;99.90;;;;;;6171672;23;20101;-78
2022/11/06 11:37:10;;;;;;;11.80;4.90;;;12.70;99.90;;;;;;6175593;23;20004;-80
2022/11/06 11:39:43;;;;;;;10.85;6.32;;;12.70;99.90;;;;;;6181478;23;20072;-79
2022/11/06 11:42:23;;;;;;;7.43;4.32;;;12.60;99.90;;;;;;6152978;23;20025;-79
2022/11/06 11:45:08;;;;;;;9.02;3.85;;;12.60;99.90;;;;;;6195559;23;20403;-79
2022/11/06 11:47:41;;;;;;;10.57;5.15;;;12.60;99.90;;;;;;6182239;23;20037;-79
2022/11/06 11:50:30;;;;;;;9.43;5.45;;;12.70;99.90;;;;;;6196704;23;20024;-78
2022/11/06 11:53:13;;;;;;;19.17;13.63;;;12.70;99.90;;;;;;6119236;23;20053;-78
2022/11/06 11:55:43;;;;;;;10.50;6.43;;;12.70;99.90;;;;;;6093569;23;20069;-78
2022/11/06 11:58:25;;;;;;;7.90;4.85;;;12.80;99.90;;;;;;6110028;23;20406;-78
2022/11/06 12:00:55;;;;;;;6.10;3.50;;;12.80;99.90;;;;;;6109013;23;20030;-78
2022/11/06 12:03:31;;;;;;;16.27;11.35;;;12.70;99.90;;;;;;6121392;23;20033;-78
2022/11/06 12:06:32;;;;;;;10.55;6.40;;;12.80;99.90;;;;;;6119298;23;20027;-78
2022/11/06 12:15:27;;;;;;;;;;;12.80;99.90;;;;;;6175301;23;20033;-79
2022/11/06 12:18:08;;;;;;;9.30;6.18;;;12.90;99.90;;;;;;6148927;23;19988;-79
2022/11/06 12:20:54;;;;;;;9.88;4.43;;;12.90;99.90;;;;;;6166974;23;20084;-79
2022/11/06 12:23:50;;;;;;;9.93;5.97;;;12.80;99.90;;;;;;6146358;23;20014;-79
2022/11/06 12:26:23;;;;;;;8.07;3.83;;;12.80;99.90;;;;;;6143773;23;20020;-79
2022/11/06 12:28:57;;;;;;;7.10;3.95;;;12.80;99.90;;;;;;6166622;23;20061;-79
2022/11/06 12:31:52;;;;;;;8.68;4.05;;;12.90;99.90;;;;;;6143895;23;20594;-79
2022/11/06 12:34:39;;;;;;;7.53;4.30;;;12.80;99.90;;;;;;6142157;23;20052;-79
2022/11/06 12:37:17;;;;;;;8.50;3.47;;;12.90;99.90;;;;;;6142317;23;20086;-79
2022/11/06 12:39:53;;;;;;;10.43;6.60;;;13.00;99.90;;;;;;6147619;23;20029;-79
2022/11/06 12:42:24;;;;;;;7.80;4.60;;;13.00;99.90;;;;;;6125263;23;20037;-79
2022/11/06 12:44:52;;;;;;;7.82;4.50;;;13.00;99.90;;;;;;6193549;23;20124;-79
2022/11/06 12:47:51;;;;;;;9.15;4.70;;;13.00;99.90;;;;;;6198726;23;20013;-79
2022/11/06 12:50:46;;;;;;;9.65;3.95;;;13.00;99.90;;;;;;6197352;23;20017;-79
2022/11/06 12:53:30;;;;;;;8.68;5.18;;;13.10;99.90;;;;;;6199474;23;20556;-79
2022/11/06 12:56:37;;;;;;;11.80;6.68;;;13.20;99.90;;;;;;6176276;23;20016;-79
2022/11/06 12:59:25;;;;;;;9.27;5.32;;;13.10;99.90;;;;;;6152664;23;20052;-79
2022/11/06 13:02:07;;;;;;;8.00;4.00;;;13.00;99.90;;;;;;6148084;23;20026;-80
2022/11/06 13:04:49;;;;;;;8.70;4.82;;;13.00;99.90;;;;;;6120723;23;20021;-80
2022/11/06 13:07:38;;;;;;;10.30;5.10;;;13.00;99.90;;;;;;6124235;23;20013;-80
2022/11/06 13:14:18;;;;;;;9.20;5.20;;;12.90;99.90;;;;;;6206419;22;20085;-80
2022/11/06 13:17:06;;;;;;;8.73;4.57;;;12.80;99.90;;;;;;6154716;23;20017;-79
2022/11/06 13:20:17;;;;;;;10.50;5.93;;;12.80;99.90;;;;;;6152361;23;20032;-79
2022/11/06 13:22:50;;;;;;;10.70;5.47;;;12.80;99.90;;;;;;6111602;23;20017;-79
2022/11/06 13:25:43;;;;;;;8.15;4.72;;;12.70;99.90;;;;;;6178433;23;20022;-79
2022/11/06 13:28:29;;;;;;;;;;;12.70;99.90;;;;;;6116282;23;20006;-79
2022/11/06 13:31:00;;;;;;;9.10;4.70;;;12.60;99.90;;;;;;6218710;23;19927;-78
2022/11/06 13:33:53;;;;;;;9.98;5.40;;;12.60;99.90;;;;;;6201873;23;20062;-78
2022/11/06 13:36:21;;;;;;;10.88;5.63;;;12.60;99.90;;;;;;6183162;23;20020;-78
2022/11/06 13:38:54;;;;;;;11.15;5.63;;;12.50;99.90;;;;;;6145609;23;20025;-78
2022/11/06 13:41:30;;;;;;;10.27;5.15;;;12.50;99.90;;;;;;6128397;23;20101;-78
2022/11/06 13:44:15;;;;;;;9.98;5.28;;;12.50;99.90;;;;;;6166717;23;20089;-78
2022/11/06 13:47:06;;;;;;;8.77;4.20;;;12.40;99.90;;;;;;6146618;23;20018;-78
2022/11/06 13:49:47;;;;;;;9.90;5.22;;;12.50;99.90;;;;;;6129368;23;20024;-78
2022/11/06 13:52:26;;;;;;;9.50;5.03;;;12.50;99.90;;;;;;6209174;23;20435;-78
2022/11/06 13:55:23;;;;;;;9.68;4.93;;;12.40;99.90;;;;;;6183245;23;20043;-78
2022/11/06 13:58:33;;;;;;;9.57;5.75;;;12.40;99.90;;;;;;6184398;23;20009;-78
2022/11/06 14:01:31;;;;;;;11.52;5.60;;;12.50;99.90;;;;;;6118349;23;20030;-78
2022/11/06 14:04:43;;;;;;;12.73;5.18;;;12.50;99.90;;;;;;6234682;23;20020;-78
2022/11/06 14:07:19;;;;;;;10.05;4.63;;;12.50;99.90;;;;;;6210955;23;20039;-78
2022/11/06 14:09:48;;;;;;;9.75;5.07;;;12.40;99.90;;;;;;6183170;23;20016;-78
2022/11/06 14:12:20;;;;;;;9.93;4.25;;;12.40;99.90;;;;;;6180087;23;20091;-78
2022/11/06 14:14:48;;;;;;;11.73;6.45;;;12.30;99.90;;;;;;6180163;23;20039;-78
2022/11/06 14:17:15;;;;;;;9.52;4.80;;;12.40;99.90;;;;;;6183298;23;20013;-78
2022/11/06 14:19:49;;;;;;;9.25;5.28;;;12.40;99.90;;;;;;6149052;23;20029;-78
2022/11/06 14:22:35;;;;;;;11.35;5.78;;;12.30;99.90;;;;;;6146040;23;20017;-78
2022/11/06 14:25:27;;;;;;;13.40;6.97;;;12.30;99.90;;;;;;6167191;23;20032;-78
2022/11/06 14:27:57;;;;;;;11.80;6.55;;;12.20;99.90;;;;;;6115032;23;20024;-78
2022/11/06 14:30:29;;;;;;;12.75;7.65;;;12.20;99.90;;;;;;6125834;23;20019;-78
2022/11/06 14:33:48;;;;;;;17.27;8.05;;;12.10;99.90;;;;;;6145531;23;20059;-78
2022/11/06 14:36:24;;;;;;;18.65;9.90;;;12.10;99.90;;;;;;6171353;23;20013;-78
2022/11/06 14:38:52;;;;;;;27.33;15.80;;;12.10;99.90;;;;;;6172061;23;20085;-78
2022/11/06 14:41:35;;;;;;;25.23;14.35;;;12.10;99.90;;;;;;6085729;23;20026;-78
2022/11/06 14:44:14;;;;;;;22.30;12.10;;;12.10;99.90;;;;;;6036452;23;20086;-78
2022/11/06 14:47:05;;;;;;;35.22;18.75;;;12.10;99.90;;;;;;5967282;24;20033;-78
2022/11/06 14:49:48;;;;;;;29.20;18.13;;;12.00;99.90;;;;;;5923506;23;20035;-78
2022/11/06 14:52:17;;;;;;;25.73;14.70;;;12.00;99.90;;;;;;6030120;23;20028;-78
2022/11/06 14:55:05;;;;;;;21.10;11.68;;;12.00;99.90;;;;;;6027248;23;20027;-78
2022/11/06 14:57:49;;;;;;;20.60;10.43;;;11.90;99.90;;;;;;6028722;23;20135;-78
2022/11/06 15:00:34;;;;;;;;;;;11.90;99.90;;;;;;6030113;23;20046;-78
2022/11/06 15:03:53;;;;;;;21.80;12.52;;;11.90;99.90;;;;;;6028353;23;19922;-78
2022/11/06 15:06:33;;;;;;;31.63;19.02;;;11.80;99.90;;;;;;6030643;23;20026;-78
2022/11/06 15:09:22;;;;;;;29.02;18.13;;;11.80;99.90;;;;;;6029897;23;20020;-78
2022/11/06 15:12:02;;;;;;;30.55;18.25;;;11.80;99.90;;;;;;6037897;23;20095;-78
2022/11/06 15:14:29;;;;;;;27.38;17.25;;;11.80;99.90;;;;;;6057462;23;20019;-78
2022/11/06 15:17:05;;;;;;;29.45;16.88;;;11.80;99.90;;;;;;6062663;23;20019;-78
2022/11/06 15:19:45;;;;;;;21.98;14.23;;;11.80;99.90;;;;;;6120740;23;20070;-78
2022/11/06 15:22:27;;;;;;;21.63;13.55;;;11.80;99.90;;;;;;6097934;23;20014;-78
2022/11/06 15:25:11;;;;;;;52.20;27.60;;;11.80;99.90;;;;;;6123302;23;20037;-78